Chahbahar, Iran
Current Conditions -  °F | °C
As of 3:00 PM on Saturday 25 Oct 2014 (Local Time) from OIZI Reporting Station
Clear Clear  
Wind Chill: 93°   Ceiling: Unl
Heat Index: 93°   Visibility: 6mi
Dew Point: 43°   Wind: 5mph
Humidity: 17%   Direction: 220°SW
Pressure: 29.85"   Gusts: NA
Location:  25.28°N, 60.62°E
Report Text: OIZI 251200Z 22004KT CAVOK 34/06 Q1011
Loading
Personal Weather Stations






























Interactive Weather Map
Tropical Storm Tracking
New forecast layout! Learn more

10-Day Weather Forecast

Advertisements
Track Severe Weather on mobile